createdAt,value
2022-10-07T00:01:13.288Z,18.10
2022-10-07T00:03:42.112Z,18.00
2022-10-07T00:06:14.333Z,18.00
2022-10-07T00:08:45.523Z,18.00
2022-10-07T00:11:16.746Z,18.00
2022-10-07T00:13:48.508Z,18.00
2022-10-07T00:16:20.309Z,17.90
2022-10-07T00:18:49.364Z,17.90
2022-10-07T00:21:20.017Z,17.90
2022-10-07T00:23:49.215Z,17.90
2022-10-07T00:26:20.314Z,17.90
2022-10-07T00:28:51.859Z,17.90
2022-10-07T00:31:22.641Z,17.90
2022-10-07T00:33:51.896Z,17.90
2022-10-07T00:36:24.343Z,17.80
2022-10-07T00:38:56.019Z,17.80
2022-10-07T00:41:26.705Z,17.80
2022-10-07T00:43:57.358Z,17.80
2022-10-07T00:46:34.440Z,17.80
2022-10-07T00:49:06.786Z,17.80
2022-10-07T00:51:36.958Z,17.80
2022-10-07T00:54:13.233Z,17.70
2022-10-07T00:56:44.159Z,17.70
2022-10-07T00:59:17.582Z,17.70
2022-10-07T01:01:46.281Z,17.70
2022-10-07T01:04:17.260Z,17.70
2022-10-07T01:06:46.005Z,17.70
2022-10-07T01:09:15.759Z,17.60
2022-10-07T01:11:57.211Z,17.60
2022-10-07T01:14:46.372Z,17.60
2022-10-07T01:17:24.552Z,17.60
2022-10-07T01:20:17.902Z,17.50
2022-10-07T01:23:11.905Z,17.50
2022-10-07T01:26:04.175Z,17.50
2022-10-07T01:28:41.990Z,17.50
2022-10-07T01:31:16.860Z,17.40
2022-10-07T01:33:47.964Z,17.40
2022-10-07T01:36:21.602Z,17.40
2022-10-07T01:38:56.731Z,17.40
2022-10-07T01:41:25.152Z,17.40
2022-10-07T01:43:56.277Z,17.40
2022-10-07T01:46:26.936Z,17.40
2022-10-07T01:48:58.547Z,17.40
2022-10-07T01:51:31.009Z,17.40
2022-10-07T01:54:14.272Z,17.30
2022-10-07T01:57:11.213Z,17.30
2022-10-07T02:00:03.549Z,17.30
2022-10-07T02:03:07.802Z,17.20
2022-10-07T02:05:49.365Z,17.20
2022-10-07T02:08:32.298Z,17.20
2022-10-07T02:11:15.622Z,17.20
2022-10-07T02:14:00.939Z,17.20
2022-10-07T02:16:40.563Z,17.20
2022-10-07T02:19:16.018Z,17.20
2022-10-07T02:21:49.155Z,17.20
2022-10-07T02:24:18.805Z,17.20
2022-10-07T02:26:50.012Z,17.10
2022-10-07T02:29:23.051Z,17.10
2022-10-07T02:31:59.468Z,17.10
2022-10-07T02:34:31.360Z,17.10
2022-10-07T02:37:07.183Z,17.10
2022-10-07T02:39:35.665Z,17.10
2022-10-07T02:42:14.277Z,16.90
2022-10-07T02:44:50.070Z,17.00
2022-10-07T02:47:29.685Z,17.00
2022-10-07T02:50:01.510Z,17.00
2022-10-07T02:52:33.968Z,17.00
2022-10-07T02:55:07.632Z,17.00
2022-10-07T02:57:43.287Z,17.00
2022-10-07T03:00:14.523Z,17.00
2022-10-07T03:02:56.283Z,16.90
2022-10-07T03:05:30.553Z,16.90
2022-10-07T03:08:06.989Z,16.90
2022-10-07T03:10:35.967Z,16.90
2022-10-07T03:13:05.006Z,16.90
2022-10-07T03:15:41.842Z,16.90
2022-10-07T03:18:26.606Z,16.90
2022-10-07T03:21:01.554Z,16.80
2022-10-07T03:23:31.228Z,16.80
2022-10-07T03:26:00.978Z,16.80
2022-10-07T03:28:35.994Z,16.80
2022-10-07T03:31:10.124Z,16.80
2022-10-07T03:33:44.042Z,16.80
2022-10-07T03:36:13.323Z,16.70
2022-10-07T03:38:44.162Z,16.70
2022-10-07T03:41:13.487Z,16.70
2022-10-07T03:43:41.653Z,16.70
2022-10-07T03:46:12.476Z,16.70
2022-10-07T03:48:43.009Z,16.70
2022-10-07T03:51:11.120Z,16.70
2022-10-07T03:53:42.120Z,16.70
2022-10-07T03:56:10.241Z,16.60
2022-10-07T03:58:39.873Z,16.60
2022-10-07T04:01:15.088Z,16.60
2022-10-07T04:03:55.761Z,16.60
2022-10-07T04:06:23.878Z,16.50
2022-10-07T04:08:53.167Z,16.50
2022-10-07T04:11:21.460Z,16.50
2022-10-07T04:13:51.456Z,16.50
2022-10-07T04:16:20.851Z,16.50
2022-10-07T04:18:49.405Z,16.50
2022-10-07T04:21:18.798Z,16.50
2022-10-07T04:23:47.971Z,16.40
2022-10-07T04:26:16.175Z,16.40
2022-10-07T04:28:49.150Z,16.40
2022-10-07T04:31:20.600Z,16.40
2022-10-07T04:33:54.163Z,16.40
2022-10-07T04:36:28.622Z,16.40
2022-10-07T04:39:06.396Z,16.30
2022-10-07T04:41:51.529Z,16.30
2022-10-07T04:44:22.645Z,16.30
2022-10-07T04:47:05.426Z,16.30
2022-10-07T04:49:35.625Z,16.30
2022-10-07T04:52:07.327Z,16.30
2022-10-07T04:54:39.313Z,16.30
2022-10-07T04:57:09.936Z,16.20
2022-10-07T04:59:42.490Z,16.20
2022-10-07T05:02:12.299Z,16.20
2022-10-07T05:04:40.676Z,16.20
2022-10-07T05:07:10.609Z,16.20
2022-10-07T05:09:39.037Z,16.20
2022-10-07T05:12:07.364Z,16.20
2022-10-07T05:14:35.569Z,16.10
2022-10-07T05:17:05.058Z,16.10
2022-10-07T05:19:36.097Z,16.10
2022-10-07T05:22:04.556Z,16.10
2022-10-07T05:24:34.231Z,16.10
2022-10-07T05:27:03.378Z,16.10
2022-10-07T05:29:31.426Z,16.10
2022-10-07T05:32:03.915Z,16.10
2022-10-07T05:34:33.825Z,16.00
2022-10-07T05:37:01.988Z,16.00
2022-10-07T05:39:30.385Z,15.90
2022-10-07T05:42:15.772Z,16.00
2022-10-07T05:44:51.681Z,16.00
2022-10-07T05:47:20.984Z,16.00
2022-10-07T05:49:50.220Z,16.00
2022-10-07T05:52:21.142Z,16.00
2022-10-07T05:54:51.784Z,15.90
2022-10-07T05:57:22.374Z,15.90
2022-10-07T05:59:51.265Z,15.90
2022-10-07T06:02:20.980Z,15.90
2022-10-07T06:04:50.220Z,15.90
2022-10-07T06:07:22.001Z,15.90
2022-10-07T06:10:11.738Z,15.90
2022-10-07T06:13:00.524Z,15.90
2022-10-07T06:15:31.125Z,15.80
2022-10-07T06:17:59.473Z,15.80
2022-10-07T06:20:29.587Z,15.90
2022-10-07T06:22:58.896Z,15.80
2022-10-07T06:25:28.448Z,15.90
2022-10-07T06:27:58.735Z,15.80
2022-10-07T06:30:29.379Z,15.80
2022-10-07T06:32:59.161Z,15.80
2022-10-07T06:35:27.261Z,15.80
2022-10-07T06:37:56.788Z,15.80
2022-10-07T06:40:24.967Z,15.80
2022-10-07T06:42:53.071Z,15.80
2022-10-07T06:45:28.142Z,15.80
2022-10-07T06:47:59.288Z,15.90
2022-10-07T06:50:27.791Z,15.90
2022-10-07T06:52:55.976Z,15.90
2022-10-07T06:55:24.265Z,15.90
2022-10-07T06:57:52.277Z,15.90
2022-10-07T07:00:22.039Z,15.80
2022-10-07T07:02:52.049Z,15.90
2022-10-07T07:05:20.573Z,15.90
2022-10-07T07:07:49.724Z,16.00
2022-10-07T07:10:18.562Z,16.00
2022-10-07T07:12:54.296Z,16.00
2022-10-07T07:15:23.026Z,16.00
2022-10-07T07:17:52.592Z,16.00
2022-10-07T07:20:21.379Z,16.00
2022-10-07T07:22:50.139Z,16.10
2022-10-07T07:25:18.351Z,16.10
2022-10-07T07:27:48.638Z,16.00
2022-10-07T07:30:22.026Z,16.10
2022-10-07T07:32:52.364Z,16.20
2022-10-07T07:35:20.608Z,16.20
2022-10-07T07:37:48.921Z,16.20
2022-10-07T07:40:17.361Z,16.20
2022-10-07T07:42:47.018Z,16.30
2022-10-07T07:45:17.086Z,16.10
2022-10-07T07:47:49.313Z,16.30
2022-10-07T07:50:20.842Z,16.30
2022-10-07T07:52:51.895Z,16.40
2022-10-07T07:55:24.600Z,16.40
2022-10-07T07:57:52.643Z,16.50
2022-10-07T08:00:20.852Z,16.50
2022-10-07T08:03:03.233Z,16.50
2022-10-07T08:05:35.920Z,16.60
2022-10-07T08:08:04.425Z,16.70
2022-10-07T08:10:32.839Z,16.80
2022-10-07T08:13:01.020Z,16.80
2022-10-07T08:15:29.159Z,17.00
2022-10-07T08:17:57.455Z,17.00
2022-10-07T08:20:25.515Z,17.20
2022-10-07T08:22:58.920Z,17.30
2022-10-07T08:25:29.399Z,17.40
2022-10-07T08:27:58.659Z,17.50
2022-10-07T08:30:27.373Z,17.50
2022-10-07T08:33:00.366Z,17.60
2022-10-07T08:35:29.321Z,17.60
2022-10-07T08:37:58.729Z,17.70
2022-10-07T08:40:26.963Z,17.70
2022-10-07T08:42:55.129Z,17.70
2022-10-07T08:45:32.400Z,17.70
2022-10-07T08:48:04.297Z,17.80
2022-10-07T08:50:43.275Z,17.80
2022-10-07T08:53:21.222Z,17.80
2022-10-07T08:55:56.292Z,17.80
2022-10-07T08:58:57.889Z,17.80
2022-10-07T09:01:45.186Z,17.90
2022-10-07T09:04:31.058Z,17.90
2022-10-07T09:07:04.383Z,17.90
2022-10-07T09:09:40.265Z,18.00
2022-10-07T09:12:17.865Z,18.00
2022-10-07T09:14:51.509Z,18.00
2022-10-07T09:17:26.109Z,18.10
2022-10-07T09:19:59.934Z,18.10
2022-10-07T09:22:36.056Z,18.10
2022-10-07T09:25:21.278Z,18.10
2022-10-07T09:27:52.112Z,18.20
2022-10-07T09:30:21.544Z,18.20
2022-10-07T09:32:54.803Z,18.20
2022-10-07T09:35:25.931Z,18.30
2022-10-07T09:38:00.574Z,18.30
2022-10-07T09:41:02.934Z,18.30
2022-10-07T09:43:33.569Z,18.40
2022-10-07T09:46:03.041Z,18.40
2022-10-07T09:48:34.794Z,18.40
2022-10-07T09:51:16.088Z,18.40
2022-10-07T09:53:58.886Z,18.40
2022-10-07T09:56:42.910Z,18.50
2022-10-07T09:59:23.642Z,18.50
2022-10-07T10:01:55.362Z,18.50
2022-10-07T10:04:31.315Z,18.60
2022-10-07T10:07:06.185Z,18.60
2022-10-07T10:09:35.380Z,18.70
2022-10-07T10:12:14.228Z,18.70
2022-10-07T10:14:49.219Z,18.70
2022-10-07T10:17:29.805Z,18.70
2022-10-07T10:20:31.159Z,18.70
2022-10-07T10:23:01.422Z,18.80
2022-10-07T10:26:03.612Z,18.80
2022-10-07T10:28:47.908Z,18.80
2022-10-07T10:31:29.260Z,18.80
2022-10-07T10:34:09.491Z,18.90
2022-10-07T10:36:46.357Z,18.90
2022-10-07T10:39:29.202Z,18.90
2022-10-07T10:42:01.917Z,18.80
2022-10-07T10:44:50.501Z,19.00
2022-10-07T10:47:33.511Z,19.00
2022-10-07T10:50:17.406Z,19.00
2022-10-07T10:53:03.639Z,19.00
2022-10-07T10:56:02.927Z,19.00
2022-10-07T10:58:52.820Z,19.10
2022-10-07T11:01:35.350Z,19.10
2022-10-07T11:04:24.719Z,19.10
2022-10-07T11:07:00.686Z,19.10
2022-10-07T11:09:39.851Z,19.20
2022-10-07T11:12:23.036Z,19.20
2022-10-07T11:15:02.210Z,19.20
2022-10-07T11:17:37.471Z,19.20
2022-10-07T11:20:20.164Z,19.20
2022-10-07T11:22:57.233Z,19.30
2022-10-07T11:25:35.631Z,19.30
2022-10-07T11:28:15.704Z,19.30
2022-10-07T11:30:55.704Z,19.30
2022-10-07T11:33:33.589Z,19.40
2022-10-07T11:36:14.032Z,19.40
2022-10-07T11:38:44.143Z,19.50
2022-10-07T11:41:21.170Z,19.40
2022-10-07T11:43:55.710Z,19.50
2022-10-07T11:46:31.920Z,19.50
2022-10-07T11:49:08.116Z,19.50
2022-10-07T11:51:42.011Z,19.40
2022-10-07T11:54:18.197Z,19.50
2022-10-07T11:56:50.681Z,19.60
2022-10-07T11:59:38.153Z,19.60
2022-10-07T12:02:46.390Z,19.60
2022-10-07T12:05:57.919Z,19.60
2022-10-07T12:08:33.628Z,19.60
2022-10-07T12:11:49.293Z,19.60
2022-10-07T12:14:44.983Z,19.60
2022-10-07T12:17:28.191Z,19.70
2022-10-07T12:20:57.720Z,19.70
2022-10-07T12:24:10.867Z,19.70
2022-10-07T12:26:46.880Z,19.70
2022-10-07T12:29:50.789Z,19.70
2022-10-07T12:32:58.227Z,19.70
2022-10-07T12:35:53.948Z,19.70
2022-10-07T12:38:29.003Z,19.80
2022-10-07T12:41:25.867Z,19.80
2022-10-07T12:44:06.228Z,19.80
2022-10-07T12:46:47.616Z,19.90
2022-10-07T12:49:25.630Z,19.90
2022-10-07T12:51:58.839Z,19.90
2022-10-07T12:54:34.708Z,19.90
2022-10-07T12:57:03.991Z,20.00
2022-10-07T12:59:54.029Z,19.90
2022-10-07T13:03:22.139Z,19.90
2022-10-07T13:06:51.402Z,19.90
2022-10-07T13:09:53.288Z,19.90
2022-10-07T13:12:39.087Z,20.00
2022-10-07T13:15:26.538Z,20.00
2022-10-07T13:18:10.665Z,20.00
2022-10-07T13:21:03.412Z,20.00
2022-10-07T13:23:32.906Z,20.10
2022-10-07T13:26:03.797Z,20.10
2022-10-07T13:28:44.387Z,20.10
2022-10-07T13:31:21.534Z,20.10
2022-10-07T13:33:50.736Z,20.20
2022-10-07T13:36:23.661Z,20.20
2022-10-07T13:39:10.292Z,20.20
2022-10-07T13:41:44.507Z,20.20
2022-10-07T13:44:18.198Z,20.20
2022-10-07T13:46:55.949Z,20.20
2022-10-07T13:49:31.490Z,20.30
2022-10-07T13:52:03.684Z,20.30
2022-10-07T13:54:34.819Z,20.30
2022-10-07T13:57:10.204Z,20.30
2022-10-07T13:59:40.655Z,20.30
2022-10-07T14:02:15.333Z,20.30
2022-10-07T14:04:54.827Z,20.30
2022-10-07T14:07:23.200Z,20.40
2022-10-07T14:10:04.779Z,20.30
2022-10-07T14:12:42.131Z,20.40
2022-10-07T14:15:16.966Z,20.40
2022-10-07T14:17:47.923Z,20.40
2022-10-07T14:20:28.310Z,20.40
2022-10-07T14:22:59.939Z,20.40
2022-10-07T14:25:31.077Z,20.40
2022-10-07T14:28:20.588Z,20.40
2022-10-07T14:31:39.352Z,20.40
2022-10-07T14:34:33.322Z,20.40
2022-10-07T14:37:03.495Z,20.50
2022-10-07T14:39:37.850Z,20.40
2022-10-07T14:42:11.805Z,20.50
2022-10-07T14:44:43.956Z,20.50
2022-10-07T14:47:16.067Z,20.50
2022-10-07T14:49:44.509Z,20.50
2022-10-07T14:52:21.963Z,20.50
2022-10-07T14:54:52.948Z,20.50
2022-10-07T14:57:20.962Z,20.60
2022-10-07T14:59:50.301Z,20.60
2022-10-07T15:02:19.040Z,20.60
2022-10-07T15:04:47.885Z,20.50
2022-10-07T15:07:17.771Z,20.60
2022-10-07T15:09:46.698Z,20.60
2022-10-07T15:12:17.068Z,20.60
2022-10-07T15:14:45.192Z,20.60
2022-10-07T15:17:15.233Z,20.60
2022-10-07T15:19:43.293Z,20.60
2022-10-07T15:22:11.286Z,20.60
2022-10-07T15:24:39.835Z,20.60
2022-10-07T15:27:09.818Z,20.60
2022-10-07T15:29:37.854Z,20.60
2022-10-07T15:32:07.158Z,20.60
2022-10-07T15:34:36.775Z,20.60
2022-10-07T15:37:05.912Z,20.70
2022-10-07T15:39:38.800Z,20.60
2022-10-07T15:42:09.771Z,20.60
2022-10-07T15:44:41.033Z,20.60
2022-10-07T15:47:09.063Z,20.70
2022-10-07T15:49:38.416Z,20.70
2022-10-07T15:52:07.026Z,20.70
2022-10-07T15:54:35.539Z,20.70
2022-10-07T15:57:04.161Z,20.70
2022-10-07T15:59:32.358Z,20.70
2022-10-07T16:02:01.430Z,20.70
2022-10-07T16:04:29.917Z,20.70
2022-10-07T16:07:00.237Z,20.60
2022-10-07T16:09:29.016Z,20.70
2022-10-07T16:11:57.063Z,20.70
2022-10-07T16:14:25.098Z,20.70
2022-10-07T16:16:53.445Z,20.60
2022-10-07T16:19:22.334Z,20.60
2022-10-07T16:21:50.761Z,20.60
2022-10-07T16:24:22.846Z,20.60
2022-10-07T16:26:51.595Z,20.60
2022-10-07T16:29:40.227Z,20.60
2022-10-07T16:32:11.245Z,20.60
2022-10-07T16:34:43.166Z,20.60
2022-10-07T16:37:12.291Z,20.60
2022-10-07T16:39:41.660Z,20.60
2022-10-07T16:42:09.710Z,20.50
2022-10-07T16:44:37.870Z,20.60
2022-10-07T16:47:06.208Z,20.50
2022-10-07T16:49:36.417Z,20.50
2022-10-07T16:52:06.520Z,20.50
2022-10-07T16:54:35.413Z,20.50
2022-10-07T16:57:05.080Z,20.50
2022-10-07T16:59:33.268Z,20.50
2022-10-07T17:02:03.136Z,20.50
2022-10-07T17:04:31.395Z,20.50
2022-10-07T17:06:59.410Z,20.40
2022-10-07T17:09:27.548Z,20.40
2022-10-07T17:11:57.278Z,20.40
2022-10-07T17:14:26.993Z,20.40
2022-10-07T17:16:58.128Z,20.40
2022-10-07T17:19:29.152Z,20.40
2022-10-07T17:21:59.177Z,20.30
2022-10-07T17:24:27.543Z,20.40
2022-10-07T17:26:56.393Z,20.30
2022-10-07T17:29:26.861Z,20.30
2022-10-07T17:31:55.645Z,20.30
2022-10-07T17:34:23.791Z,20.30
2022-10-07T17:36:52.113Z,20.30
2022-10-07T17:39:20.405Z,20.20
2022-10-07T17:41:49.246Z,20.20
2022-10-07T17:44:17.569Z,20.20
2022-10-07T17:46:48.928Z,20.20
2022-10-07T17:49:17.225Z,20.20
2022-10-07T17:51:45.320Z,20.20
2022-10-07T17:54:15.298Z,20.10
2022-10-07T17:56:45.635Z,20.10
2022-10-07T17:59:14.342Z,20.10
2022-10-07T18:01:43.222Z,20.10
2022-10-07T18:04:18.916Z,20.10
2022-10-07T18:06:50.807Z,20.10
2022-10-07T18:09:19.623Z,20.10
2022-10-07T18:12:05.487Z,20.00
2022-10-07T18:14:54.044Z,20.00
2022-10-07T18:17:24.398Z,19.90
2022-10-07T18:19:54.033Z,20.00
2022-10-07T18:22:22.593Z,20.00
2022-10-07T18:24:50.874Z,20.00
2022-10-07T18:27:25.275Z,20.00
2022-10-07T18:29:54.245Z,19.90
2022-10-07T18:32:22.709Z,19.90
2022-10-07T18:34:50.899Z,19.90
2022-10-07T18:37:20.290Z,19.90
2022-10-07T18:39:48.383Z,19.90
2022-10-07T18:42:16.570Z,19.90
2022-10-07T18:44:44.882Z,19.90
2022-10-07T18:47:12.868Z,19.80
2022-10-07T18:49:41.569Z,19.80
2022-10-07T18:52:09.704Z,19.80
2022-10-07T18:54:39.341Z,19.80
2022-10-07T18:57:07.473Z,19.80
2022-10-07T18:59:35.807Z,19.80
2022-10-07T19:02:04.309Z,19.80
2022-10-07T19:04:33.251Z,19.70
2022-10-07T19:07:03.029Z,19.70
2022-10-07T19:09:31.343Z,19.70
2022-10-07T19:12:00.721Z,19.70
2022-10-07T19:14:31.094Z,19.70
2022-10-07T19:16:59.256Z,19.70
2022-10-07T19:19:27.329Z,19.70
2022-10-07T19:21:57.450Z,19.60
2022-10-07T19:24:45.457Z,19.60
2022-10-07T19:27:16.424Z,19.60
2022-10-07T19:29:44.684Z,19.60
2022-10-07T19:32:14.008Z,19.60
2022-10-07T19:34:42.138Z,19.60
2022-10-07T19:37:10.332Z,19.60
2022-10-07T19:39:38.422Z,19.60
2022-10-07T19:42:06.854Z,19.50
2022-10-07T19:44:38.546Z,19.50
2022-10-07T19:47:06.753Z,19.50
2022-10-07T19:49:34.802Z,19.50
2022-10-07T19:52:02.910Z,19.50
2022-10-07T19:54:35.741Z,19.50
2022-10-07T19:57:04.160Z,19.50
2022-10-07T19:59:32.215Z,19.50
2022-10-07T20:02:01.690Z,19.50
2022-10-07T20:04:30.444Z,19.40
2022-10-07T20:06:58.727Z,19.40
2022-10-07T20:09:26.748Z,19.40
2022-10-07T20:11:55.874Z,19.40
2022-10-07T20:14:23.919Z,19.40
2022-10-07T20:16:51.990Z,19.40
2022-10-07T20:19:21.352Z,19.40
2022-10-07T20:21:49.461Z,19.40
2022-10-07T20:24:18.264Z,19.40
2022-10-07T20:26:46.467Z,19.40
2022-10-07T20:29:16.153Z,19.30
2022-10-07T20:31:45.375Z,19.30
2022-10-07T20:34:16.496Z,19.30
2022-10-07T20:36:46.088Z,19.20
2022-10-07T20:39:35.859Z,19.30
2022-10-07T20:42:27.253Z,19.10
2022-10-07T20:44:55.348Z,19.30
2022-10-07T20:47:25.874Z,19.20
2022-10-07T20:49:56.446Z,19.20
2022-10-07T20:52:29.046Z,19.20
2022-10-07T20:54:57.448Z,19.20
2022-10-07T20:57:28.380Z,19.20
2022-10-07T20:59:56.672Z,19.20
2022-10-07T21:02:25.567Z,19.20
2022-10-07T21:04:53.660Z,19.20
2022-10-07T21:07:21.904Z,19.20
2022-10-07T21:09:51.330Z,19.20
2022-10-07T21:12:19.434Z,19.20
2022-10-07T21:14:48.534Z,19.20
2022-10-07T21:17:16.984Z,19.20
2022-10-07T21:19:45.019Z,19.20
2022-10-07T21:22:14.523Z,19.10
2022-10-07T21:24:42.604Z,19.20
2022-10-07T21:27:11.993Z,19.10
2022-10-07T21:29:41.208Z,19.10
2022-10-07T21:32:10.533Z,19.10
2022-10-07T21:34:39.457Z,19.10
2022-10-07T21:37:07.881Z,19.10
2022-10-07T21:39:35.911Z,19.10
2022-10-07T21:42:04.201Z,19.10
2022-10-07T21:44:34.750Z,19.10
2022-10-07T21:47:04.844Z,19.10
2022-10-07T21:49:32.902Z,19.10
2022-10-07T21:52:00.932Z,19.10
2022-10-07T21:54:30.221Z,19.00
2022-10-07T21:56:58.254Z,19.00
2022-10-07T21:59:26.354Z,19.00
2022-10-07T22:01:56.013Z,19.00
2022-10-07T22:04:24.909Z,19.00
2022-10-07T22:07:10.618Z,19.00
2022-10-07T22:09:38.638Z,18.80
2022-10-07T22:12:06.949Z,19.00
2022-10-07T22:14:34.978Z,18.90
2022-10-07T22:17:04.365Z,18.90
2022-10-07T22:19:32.402Z,18.90
2022-10-07T22:22:00.519Z,18.90
2022-10-07T22:24:28.512Z,18.90
2022-10-07T22:26:56.548Z,18.90
2022-10-07T22:29:25.159Z,18.90
2022-10-07T22:31:53.771Z,18.90
2022-10-07T22:34:42.559Z,18.90
2022-10-07T22:37:10.716Z,18.90
2022-10-07T22:39:38.766Z,18.90
2022-10-07T22:42:06.864Z,18.80
2022-10-07T22:44:34.896Z,18.80
2022-10-07T22:47:02.953Z,18.80
2022-10-07T22:49:32.392Z,18.80
2022-10-07T22:52:00.952Z,18.80
2022-10-07T22:54:29.717Z,18.80
2022-10-07T22:56:57.742Z,18.80
2022-10-07T22:59:25.854Z,18.80
2022-10-07T23:01:53.954Z,18.80
2022-10-07T23:04:21.970Z,18.80
2022-10-07T23:06:51.383Z,18.80
2022-10-07T23:09:20.895Z,18.80
2022-10-07T23:11:48.933Z,18.80
2022-10-07T23:14:17.869Z,18.80
2022-10-07T23:16:46.478Z,18.70
2022-10-07T23:19:14.737Z,18.80
2022-10-07T23:21:43.904Z,18.80
2022-10-07T23:24:14.028Z,18.70
2022-10-07T23:26:43.221Z,18.70
2022-10-07T23:29:11.632Z,18.70
2022-10-07T23:31:39.916Z,18.70
2022-10-07T23:34:08.017Z,18.70
2022-10-07T23:36:36.029Z,18.70
2022-10-07T23:39:04.525Z,18.70
2022-10-07T23:41:34.213Z,18.70
2022-10-07T23:44:04.074Z,18.70
2022-10-07T23:46:35.618Z,18.70
2022-10-07T23:49:05.286Z,18.70
2022-10-07T23:51:34.414Z,18.70
2022-10-07T23:54:04.654Z,18.70
2022-10-07T23:56:34.669Z,18.70
2022-10-07T23:59:03.819Z,18.70
